Time;durP1;ratioP1;P1;durP2;ratioP2;P2;SDS_P1;SDS_P2;PMS_P1;PMS_P2;Temp;Humidity;BMP_temperature;BMP_pressure;BME280_temperature;BME280_humidity;BME280_pressure;Samples;Min_cycle;Max_cycle;Signal;HPM_P1;HPM_P2
2022/05/10 00:00:12;;;;;;;3.67;1.52;;;21.50;57.10;;;;;;5013293;28;20129;-56
2022/05/10 00:02:38;;;;;;;4.00;1.42;;;21.50;57.10;;;;;;5012575;28;20492;-56
2022/05/10 00:05:04;;;;;;;3.33;1.40;;;21.40;57.00;;;;;;5013369;28;20592;-56
2022/05/10 00:07:32;;;;;;;2.67;1.30;;;21.50;57.10;;;;;;5012919;28;20038;-56
2022/05/10 00:09:57;;;;;;;3.78;1.25;;;21.50;57.00;;;;;;5010807;28;20112;-56
2022/05/10 00:12:23;;;;;;;3.20;1.40;;;21.50;57.00;;;;;;5012889;28;20509;-56
2022/05/10 00:14:48;;;;;;;3.35;1.30;;;21.50;57.00;;;;;;5012585;28;20050;-56
2022/05/10 00:17:23;;;;;;;2.40;1.30;;;21.50;57.00;;;;;;5012163;28;20042;-56
2022/05/10 00:19:48;;;;;;;3.20;1.42;;;21.50;57.10;;;;;;5011318;28;20050;-56
2022/05/10 00:22:14;;;;;;;3.90;1.83;;;21.40;57.00;;;;;;5012591;28;20073;-56
2022/05/10 00:24:39;;;;;;;3.72;1.50;;;21.40;56.90;;;;;;5012014;28;20118;-56
2022/05/10 00:27:05;;;;;;;3.17;1.40;;;21.40;56.90;;;;;;5012548;28;20049;-56
2022/05/10 00:29:31;;;;;;;3.40;1.17;;;21.40;56.90;;;;;;5012688;28;20044;-56
2022/05/10 00:31:56;;;;;;;4.70;1.80;;;21.40;56.90;;;;;;5011793;28;20054;-56
2022/05/10 00:34:22;;;;;;;3.90;1.58;;;21.40;56.90;;;;;;5012991;28;20135;-56
2022/05/10 00:36:47;;;;;;;3.55;1.40;;;21.40;56.90;;;;;;5011141;28;20053;-56
2022/05/10 00:39:13;;;;;;;3.72;1.73;;;21.40;56.90;;;;;;5011674;28;20096;-56
2022/05/10 00:41:44;;;;;;;3.17;1.30;;;21.40;56.90;;;;;;5012244;28;20573;-56
2022/05/10 00:44:34;;;;;;;3.55;1.42;;;21.40;56.90;;;;;;5012801;28;20544;-56
2022/05/10 00:47:18;;;;;;;2.50;1.20;;;21.40;56.90;;;;;;5011364;28;20082;-56
2022/05/10 00:50:01;;;;;;;2.65;1.30;;;21.40;56.80;;;;;;5010937;28;20580;-56
2022/05/10 00:52:45;;;;;;;3.58;1.60;;;21.40;56.90;;;;;;5012914;28;20478;-56
2022/05/10 00:55:18;;;;;;;4.28;1.40;;;21.40;56.90;;;;;;5016481;28;20489;-56
2022/05/10 00:57:58;;;;;;;3.05;1.60;;;21.30;56.80;;;;;;5015035;28;20501;-56
2022/05/10 01:00:28;;;;;;;2.85;1.27;;;21.40;56.90;;;;;;5014299;28;20093;-56
2022/05/10 01:03:09;;;;;;;4.00;1.50;;;21.30;56.80;;;;;;5015063;28;20046;-56
2022/05/10 01:05:44;;;;;;;3.35;1.50;;;21.30;56.80;;;;;;5015819;28;20461;-56
2022/05/10 01:08:23;;;;;;;1.85;1.10;;;21.30;56.80;;;;;;5015302;28;20133;-56
2022/05/10 01:11:10;;;;;;;3.25;1.25;;;21.30;56.80;;;;;;5014819;28;20042;-56
2022/05/10 01:13:40;;;;;;;3.35;1.30;;;21.30;56.80;;;;;;5015346;28;20069;-56
2022/05/10 01:16:14;;;;;;;3.55;1.48;;;21.30;56.80;;;;;;5015024;28;20050;-56
2022/05/10 01:18:40;;;;;;;3.40;1.33;;;21.30;56.80;;;;;;5014913;28;20046;-56
2022/05/10 01:21:28;;;;;;;2.70;1.40;;;21.30;56.80;;;;;;5015068;28;20100;-56
2022/05/10 01:24:08;;;;;;;2.60;1.38;;;21.30;56.80;;;;;;5014925;28;20045;-56
2022/05/10 01:26:49;;;;;;;3.05;1.40;;;21.30;56.90;;;;;;5014807;28;20053;-56
2022/05/10 01:29:22;;;;;;;2.25;1.15;;;21.30;56.80;;;;;;5014655;28;20037;-56
2022/05/10 01:33:29;;;;;;;3.85;1.50;;;21.30;56.80;;;;;;5014332;28;20374;-56
2022/05/10 01:34:37;;;;;;;2.47;1.38;;;21.30;56.80;;;;;;5014038;28;20057;-56
2022/05/10 01:37:02;;;;;;;3.83;1.50;;;21.30;56.80;;;;;;5014082;28;20081;-56
2022/05/10 01:39:42;;;;;;;3.95;1.55;;;21.30;56.80;;;;;;5014759;28;20048;-56
2022/05/10 01:42:16;;;;;;;3.47;1.45;;;21.30;56.80;;;;;;5013973;28;20046;-56
2022/05/10 01:45:12;;;;;;;3.28;1.50;;;21.30;56.80;;;;;;5014043;28;20486;-56
2022/05/10 01:47:47;;;;;;;4.35;1.55;;;21.30;56.70;;;;;;5000557;28;20054;-56
2022/05/10 01:50:18;;;;;;;2.97;1.30;;;21.30;56.80;;;;;;5013926;28;20041;-56
2022/05/10 01:52:57;;;;;;;3.50;1.42;;;21.30;56.70;;;;;;5014066;28;20041;-56
2022/05/10 01:55:42;;;;;;;2.53;1.20;;;21.20;56.70;;;;;;5013530;28;20046;-56
2022/05/10 01:58:12;;;;;;;2.10;1.30;;;21.20;56.70;;;;;;5014025;28;20095;-56
2022/05/10 02:00:38;;;;;;;2.72;1.30;;;21.20;56.70;;;;;;5013917;28;20038;-56
2022/05/10 02:03:28;;;;;;;2.50;1.30;;;21.20;56.80;;;;;;5012416;28;20183;-56
2022/05/10 02:06:05;;;;;;;3.25;1.45;;;21.20;56.60;;;;;;5003734;28;20075;-56
2022/05/10 02:08:34;;;;;;;3.10;1.50;;;21.20;56.80;;;;;;5014769;28;20558;-56
2022/05/10 02:11:03;;;;;;;2.20;1.30;;;21.20;56.70;;;;;;5014054;28;20068;-56
2022/05/10 02:13:31;;;;;;;3.10;1.50;;;21.20;56.70;;;;;;5013751;28;20060;-56
2022/05/10 02:16:11;;;;;;;2.67;1.50;;;21.20;56.70;;;;;;5013189;28;20056;-56
2022/05/10 02:19:15;;;;;;;3.28;1.35;;;21.20;56.70;;;;;;5013924;28;20049;-56
2022/05/10 02:22:03;;;;;;;3.88;1.48;;;21.20;56.70;;;;;;5014310;28;20060;-56
2022/05/10 02:24:33;;;;;;;;;;;21.20;56.70;;;;;;5013749;28;20050;-56
2022/05/10 02:27:03;;;;;;;2.63;1.27;;;21.20;56.70;;;;;;5046631;28;19925;-56
2022/05/10 02:29:39;;;;;;;3.58;1.35;;;21.20;56.70;;;;;;5014799;28;20077;-56
2022/05/10 02:34:53;;;;;;;3.40;1.42;;;21.20;56.80;;;;;;5013351;28;20405;-57
2022/05/10 02:37:19;;;;;;;2.80;1.52;;;21.20;56.80;;;;;;5012792;28;20080;-56
2022/05/10 02:39:44;;;;;;;2.45;1.38;;;21.20;57.50;;;;;;5014566;28;20091;-56
2022/05/10 02:42:12;;;;;;;3.35;1.42;;;21.20;56.80;;;;;;5014333;28;20045;-56
2022/05/10 02:44:38;;;;;;;2.88;1.48;;;21.20;56.80;;;;;;5012777;28;20099;-56
2022/05/10 02:47:05;;;;;;;2.90;1.50;;;21.20;56.80;;;;;;5013597;28;20045;-56
2022/05/10 02:49:30;;;;;;;3.45;1.98;;;21.10;56.70;;;;;;5014624;28;20131;-56
2022/05/10 02:51:56;;;;;;;2.47;1.40;;;21.20;56.70;;;;;;5013316;28;20076;-56
2022/05/10 02:54:21;;;;;;;1.90;1.20;;;21.20;56.80;;;;;;5014417;28;20179;-56
2022/05/10 02:56:47;;;;;;;1.77;1.15;;;21.20;56.80;;;;;;5013995;28;20224;-56
2022/05/10 02:59:18;;;;;;;2.35;1.40;;;21.10;56.70;;;;;;5012505;28;20056;-56
2022/05/10 03:02:06;;;;;;;3.47;1.30;;;21.10;57.40;;;;;;5014209;28;20128;-56
2022/05/10 03:04:36;;;;;;;4.75;1.67;;;21.10;56.80;;;;;;5012989;28;20046;-56
2022/05/10 03:07:03;;;;;;;1.95;1.30;;;21.10;56.70;;;;;;5012827;28;20485;-56
2022/05/10 03:09:29;;;;;;;1.95;1.20;;;21.10;56.70;;;;;;5013840;28;20163;-56
2022/05/10 03:11:54;;;;;;;2.38;1.30;;;21.10;56.70;;;;;;5013778;28;20042;-56
2022/05/10 03:14:20;;;;;;;2.95;1.48;;;21.10;56.70;;;;;;5012734;28;20570;-56
2022/05/10 03:16:46;;;;;;;2.95;1.45;;;21.10;56.70;;;;;;5013417;28;20410;-55
2022/05/10 03:19:12;;;;;;;2.47;1.38;;;21.10;56.80;;;;;;5013835;28;20500;-56
2022/05/10 03:21:38;;;;;;;3.45;1.40;;;21.10;56.80;;;;;;5013050;28;20041;-56
2022/05/10 03:24:04;;;;;;;3.10;1.40;;;21.10;56.80;;;;;;5013720;28;20038;-56
2022/05/10 03:26:30;;;;;;;3.22;1.75;;;21.10;56.80;;;;;;5013076;28;20401;-57
2022/05/10 03:28:55;;;;;;;2.22;1.10;;;21.10;56.70;;;;;;5013484;28;20041;-56
2022/05/10 03:31:22;;;;;;;3.40;1.75;;;21.10;56.70;;;;;;5013677;28;20042;-56
2022/05/10 03:34:53;;;;;;;2.63;1.40;;;21.10;56.70;;;;;;5012750;28;20092;-56
2022/05/10 03:36:33;;;;;;;2.80;1.52;;;21.10;56.80;;;;;;5013194;28;20057;-56
2022/05/10 03:38:59;;;;;;;2.25;1.40;;;21.00;56.70;;;;;;5013292;28;20053;-56
2022/05/10 03:41:24;;;;;;;2.83;1.48;;;21.10;56.70;;;;;;5012540;28;20484;-56
2022/05/10 03:43:50;;;;;;;2.50;1.55;;;21.10;56.80;;;;;;5013192;28;20130;-56
2022/05/10 03:46:15;;;;;;;2.05;1.40;;;21.10;56.80;;;;;;5013424;28;20095;-56
2022/05/10 03:48:41;;;;;;;3.00;1.63;;;21.10;56.80;;;;;;5012425;28;20038;-56
2022/05/10 03:51:06;;;;;;;3.08;1.60;;;21.10;56.80;;;;;;5013185;28;20397;-56
2022/05/10 03:53:32;;;;;;;2.83;1.45;;;21.10;56.80;;;;;;5013242;28;20478;-56
2022/05/10 03:55:57;;;;;;;1.75;1.40;;;21.10;56.80;;;;;;5012468;28;20046;-56
2022/05/10 03:58:23;;;;;;;3.05;1.60;;;21.00;56.70;;;;;;5013108;28;20077;-56
2022/05/10 04:00:48;;;;;;;2.47;1.50;;;21.00;56.70;;;;;;5009946;28;20049;-56
2022/05/10 04:03:14;;;;;;;2.80;1.65;;;21.00;56.70;;;;;;5007177;28;20045;-56
2022/05/10 04:05:40;;;;;;;2.67;1.50;;;21.00;56.70;;;;;;5012331;28;20049;-56
2022/05/10 04:08:05;;;;;;;2.97;1.60;;;21.00;56.70;;;;;;5012905;28;20090;-56
2022/05/10 04:10:31;;;;;;;3.85;1.92;;;21.00;56.70;;;;;;5012380;28;20045;-56
2022/05/10 04:12:56;;;;;;;3.00;1.38;;;21.00;56.70;;;;;;5012645;28;20058;-56
2022/05/10 04:15:22;;;;;;;2.65;1.48;;;21.00;56.70;;;;;;5012865;28;20456;-56
2022/05/10 04:17:48;;;;;;;2.72;1.55;;;21.00;56.70;;;;;;5011786;28;20050;-56
2022/05/10 04:20:14;;;;;;;2.88;1.70;;;21.00;56.70;;;;;;5012972;28;20073;-56
2022/05/10 04:22:39;;;;;;;2.50;1.60;;;21.00;56.70;;;;;;5011935;28;20038;-56
2022/05/10 04:25:05;;;;;;;3.55;1.70;;;21.00;56.80;;;;;;5013019;28;20096;-56
2022/05/10 04:27:31;;;;;;;2.40;1.60;;;21.00;56.70;;;;;;5012022;28;20554;-56
2022/05/10 04:29:56;;;;;;;2.45;1.60;;;21.00;56.70;;;;;;5011850;28;20041;-56
2022/05/10 04:32:22;;;;;;;3.30;1.73;;;21.00;56.70;;;;;;5012811;28;20116;-56
2022/05/10 04:34:47;;;;;;;2.33;1.38;;;21.00;56.70;;;;;;5011032;28;20482;-56
2022/05/10 04:37:13;;;;;;;2.40;1.55;;;21.00;56.70;;;;;;5012039;28;20045;-56
2022/05/10 04:42:23;;;;;;;3.20;1.65;;;21.00;56.70;;;;;;5012683;28;20073;-55
2022/05/10 04:44:48;;;;;;;3.40;1.80;;;21.00;56.70;;;;;;5011682;28;20073;-56
2022/05/10 04:47:13;;;;;;;2.08;1.42;;;21.00;56.80;;;;;;5012778;28;20049;-56
2022/05/10 04:49:39;;;;;;;3.30;1.90;;;21.00;56.70;;;;;;5012147;28;20042;-56
2022/05/10 04:52:05;;;;;;;3.30;1.65;;;20.90;56.70;;;;;;5010712;28;20136;-56
2022/05/10 04:54:30;;;;;;;2.38;1.67;;;20.90;56.70;;;;;;5012764;28;20088;-56
2022/05/10 04:56:56;;;;;;;3.10;1.83;;;21.00;56.80;;;;;;5012233;28;20081;-56
2022/05/10 04:59:21;;;;;;;2.67;1.75;;;21.00;56.80;;;;;;5011986;28;20042;-56
2022/05/10 05:01:47;;;;;;;3.05;1.67;;;21.00;56.80;;;;;;5012369;28;20469;-56
2022/05/10 05:04:12;;;;;;;3.90;1.80;;;20.90;56.70;;;;;;5012695;28;20053;-56
2022/05/10 05:06:39;;;;;;;2.80;2.03;;;21.00;56.70;;;;;;5011596;28;20249;-56
2022/05/10 05:09:05;;;;;;;2.28;1.48;;;20.90;56.70;;;;;;5012522;28;20061;-56
2022/05/10 05:11:31;;;;;;;3.58;1.90;;;20.90;56.70;;;;;;5012408;28;20050;-56
2022/05/10 05:13:56;;;;;;;2.63;1.85;;;20.90;56.70;;;;;;5011245;28;20536;-56
2022/05/10 05:16:22;;;;;;;2.97;2.00;;;20.90;56.60;;;;;;5012341;28;20398;-56
2022/05/10 05:18:47;;;;;;;2.95;1.80;;;20.90;56.70;;;;;;5011722;28;20108;-56
2022/05/10 05:21:13;;;;;;;3.40;1.92;;;20.90;56.70;;;;;;5012249;28;20038;-56
2022/05/10 05:23:39;;;;;;;3.38;1.90;;;20.90;56.70;;;;;;5011857;28;20050;-56
2022/05/10 05:26:04;;;;;;;3.72;1.70;;;20.90;56.70;;;;;;5011504;28;20044;-56
2022/05/10 05:28:30;;;;;;;2.72;1.73;;;20.90;56.70;;;;;;5012203;28;20046;-56
2022/05/10 05:30:55;;;;;;;2.85;1.80;;;20.90;56.70;;;;;;5011760;28;20371;-56
2022/05/10 05:33:21;;;;;;;2.72;1.73;;;20.90;56.80;;;;;;5011425;28;20056;-56
2022/05/10 05:35:46;;;;;;;2.90;1.92;;;20.90;56.80;;;;;;5011970;28;20053;-56
2022/05/10 05:38:12;;;;;;;3.28;2.05;;;20.90;56.70;;;;;;5013727;28;20045;-56
2022/05/10 05:40:37;;;;;;;3.85;2.03;;;20.90;56.80;;;;;;5015097;28;20444;-57
2022/05/10 05:43:03;;;;;;;3.45;1.98;;;20.90;56.70;;;;;;5014365;28;20056;-56
2022/05/10 05:45:29;;;;;;;3.30;1.95;;;20.90;56.80;;;;;;5015516;28;20547;-56
2022/05/10 05:47:54;;;;;;;3.90;2.10;;;20.90;56.80;;;;;;5014735;28;20053;-56
2022/05/10 05:50:21;;;;;;;2.42;1.90;;;20.90;56.80;;;;;;5015459;28;20042;-55
2022/05/10 05:52:47;;;;;;;4.10;1.92;;;21.00;56.80;;;;;;5015308;28;20050;-56
2022/05/10 05:55:13;;;;;;;3.55;2.17;;;21.00;56.80;;;;;;5014014;28;20431;-55
2022/05/10 05:57:39;;;;;;;4.53;2.58;;;20.90;56.80;;;;;;5015199;28;20049;-56
2022/05/10 06:00:11;;;;;;;4.65;2.50;;;21.00;56.90;;;;;;5015167;28;20448;-56
2022/05/10 06:02:36;;;;;;;4.65;2.47;;;21.00;57.00;;;;;;5014679;28;20041;-56
2022/05/10 06:05:02;;;;;;;7.40;2.75;;;21.00;57.10;;;;;;5013905;28;20050;-56
2022/05/10 06:07:28;;;;;;;4.68;2.33;;;21.10;57.40;;;;;;5015267;28;20033;-56
2022/05/10 06:09:53;;;;;;;6.45;2.75;;;21.10;57.50;;;;;;5014161;28;20042;-56
2022/05/10 06:12:19;;;;;;;4.55;2.28;;;21.10;57.50;;;;;;5015116;28;20108;-56
2022/05/10 06:14:44;;;;;;;3.03;2.10;;;21.10;57.60;;;;;;5014684;28;20116;-56
2022/05/10 06:17:10;;;;;;;4.80;2.50;;;21.10;57.60;;;;;;5014456;28;20046;-56
2022/05/10 06:19:37;;;;;;;5.78;2.70;;;21.10;57.70;;;;;;5014982;28;20057;-56
2022/05/10 06:22:03;;;;;;;5.75;2.30;;;21.20;57.80;;;;;;5014795;28;20042;-56
2022/05/10 06:24:29;;;;;;;6.88;2.47;;;21.20;58.00;;;;;;5014398;28;20100;-56
2022/05/10 06:26:54;;;;;;;2.78;1.80;;;21.20;58.00;;;;;;5014458;28;20092;-56
2022/05/10 06:29:20;;;;;;;4.35;2.42;;;21.20;58.00;;;;;;5014057;28;20077;-56
2022/05/10 06:31:46;;;;;;;3.63;1.90;;;21.30;58.20;;;;;;5014726;28;20046;-56
2022/05/10 06:34:11;;;;;;;6.63;2.63;;;21.30;58.20;;;;;;5014979;28;20080;-56
2022/05/10 06:36:37;;;;;;;7.20;2.17;;;21.30;58.30;;;;;;5014062;28;20107;-56
2022/05/10 06:39:03;;;;;;;4.93;2.40;;;21.30;58.30;;;;;;5014260;28;20436;-55
2022/05/10 06:41:31;;;;;;;3.83;2.38;;;21.30;58.30;;;;;;5014644;28;20478;-56
2022/05/10 06:43:57;;;;;;;6.15;2.55;;;21.30;58.30;;;;;;5013294;28;20057;-56
2022/05/10 06:46:22;;;;;;;4.75;2.20;;;21.30;58.30;;;;;;5014505;28;20050;-56
2022/05/10 06:48:48;;;;;;;3.75;1.88;;;21.40;58.50;;;;;;5014106;28;20041;-56
2022/05/10 06:51:16;;;;;;;4.32;2.17;;;21.40;58.60;;;;;;5013613;28;20048;-56
2022/05/10 06:53:42;;;;;;;4.30;2.67;;;21.40;58.70;;;;;;5014007;28;20044;-56
2022/05/10 06:56:08;;;;;;;5.18;2.25;;;21.40;58.60;;;;;;5014310;28;20042;-56
2022/05/10 06:58:33;;;;;;;4.15;2.28;;;21.50;58.80;;;;;;5013141;28;20046;-56
2022/05/10 07:00:59;;;;;;;4.97;2.80;;;21.40;58.70;;;;;;5013975;28;20048;-56
2022/05/10 07:03:28;;;;;;;4.03;2.33;;;21.50;58.70;;;;;;5014452;28;20081;-56
2022/05/10 07:05:54;;;;;;;3.55;2.30;;;21.50;58.70;;;;;;5013102;28;20041;-56
2022/05/10 07:08:19;;;;;;;4.85;2.08;;;21.50;58.70;;;;;;5013898;28;20048;-56
2022/05/10 07:10:45;;;;;;;3.47;2.10;;;21.50;58.60;;;;;;5013621;28;20092;-56
2022/05/10 07:13:18;;;;;;;6.20;2.45;;;21.50;58.70;;;;;;5012830;28;20050;-56
2022/05/10 07:15:44;;;;;;;4.28;2.38;;;21.50;58.70;;;;;;5013853;28;20128;-56
2022/05/10 07:18:10;;;;;;;3.45;2.50;;;21.50;58.60;;;;;;5013237;28;20056;-56
2022/05/10 07:20:35;;;;;;;5.13;2.35;;;21.50;58.60;;;;;;5013144;28;20046;-56
2022/05/10 07:23:01;;;;;;;3.95;2.20;;;21.50;58.70;;;;;;5013396;28;20108;-56
2022/05/10 07:25:28;;;;;;;3.80;2.40;;;21.50;58.80;;;;;;5012633;28;20042;-56
2022/05/10 07:27:54;;;;;;;5.15;2.42;;;21.50;58.80;;;;;;5013356;28;20049;-56
2022/05/10 07:30:20;;;;;;;3.63;2.30;;;21.50;58.80;;;;;;5013913;28;20056;-57
2022/05/10 07:32:46;;;;;;;4.07;2.38;;;21.50;58.90;;;;;;5012529;28;20042;-57
2022/05/10 07:35:11;;;;;;;4.68;2.25;;;21.60;59.00;;;;;;5013507;28;20489;-56
2022/05/10 07:37:38;;;;;;;4.65;2.40;;;21.60;59.10;;;;;;5013603;28;20050;-56
2022/05/10 07:40:04;;;;;;;5.72;2.55;;;21.60;59.10;;;;;;5012403;28;20508;-56
2022/05/10 07:42:29;;;;;;;4.07;2.38;;;21.60;59.10;;;;;;5013694;28;20038;-56
2022/05/10 07:44:55;;;;;;;3.55;2.55;;;21.60;59.10;;;;;;5013265;28;20049;-56
2022/05/10 07:47:21;;;;;;;5.50;2.65;;;21.60;59.10;;;;;;5012925;28;20046;-56
2022/05/10 07:49:46;;;;;;;3.70;2.70;;;21.60;59.10;;;;;;5011660;28;20063;-56
2022/05/10 07:52:15;;;;;;;5.90;2.15;;;21.60;59.10;;;;;;5013392;28;20070;-56
2022/05/10 07:54:40;;;;;;;5.40;2.50;;;21.60;59.10;;;;;;5012520;28;20042;-56
2022/05/10 07:57:06;;;;;;;5.97;2.50;;;21.60;59.30;;;;;;5010484;28;20057;-56
2022/05/10 07:59:31;;;;;;;4.00;2.13;;;21.70;59.40;;;;;;5003602;28;20198;-56
2022/05/10 08:01:58;;;;;;;5.88;2.40;;;21.70;59.50;;;;;;5002703;28;20041;-57
2022/05/10 08:04:23;;;;;;;3.80;2.60;;;21.70;59.50;;;;;;5012456;28;20041;-56
2022/05/10 08:06:49;;;;;;;3.72;2.00;;;21.70;59.50;;;;;;5012310;28;20046;-57
2022/05/10 08:09:14;;;;;;;4.38;2.53;;;21.80;59.60;;;;;;5011271;28;20093;-56
2022/05/10 08:11:41;;;;;;;4.00;2.17;;;21.80;59.50;;;;;;5012068;28;20046;-57
2022/05/10 08:14:06;;;;;;;4.40;2.45;;;21.80;59.60;;;;;;5012532;28;20525;-56
2022/05/10 08:16:33;;;;;;;3.97;2.40;;;21.80;59.60;;;;;;5012304;28;20041;-58
2022/05/10 08:18:58;;;;;;;4.47;2.50;;;21.80;59.60;;;;;;5012661;28;20060;-56
2022/05/10 08:21:24;;;;;;;4.20;2.35;;;21.80;59.50;;;;;;5012917;28;20046;-56
2022/05/10 08:23:52;;;;;;;3.88;2.60;;;21.80;59.50;;;;;;5011945;28;20042;-56
2022/05/10 08:26:20;;;;;;;5.28;2.60;;;21.90;59.60;;;;;;5012968;28;20046;-60
2022/05/10 08:28:45;;;;;;;5.57;2.70;;;21.90;59.60;;;;;;5011940;28;20046;-56
2022/05/10 08:31:11;;;;;;;4.50;2.50;;;21.90;59.50;;;;;;5012463;28;20042;-56
2022/05/10 08:33:38;;;;;;;5.75;2.60;;;21.90;59.50;;;;;;5012657;28;20104;-56
2022/05/10 08:36:04;;;;;;;6.13;2.80;;;21.90;59.50;;;;;;5012232;28;20050;-56
2022/05/10 08:38:30;;;;;;;5.50;2.65;;;22.00;59.60;;;;;;5012632;28;20042;-56
2022/05/10 08:41:06;;;;;;;5.78;2.60;;;21.90;59.60;;;;;;5012228;28;20049;-56
2022/05/10 08:43:41;;;;;;;4.95;2.33;;;21.90;59.70;;;;;;5012142;28;20107;-56
2022/05/10 08:46:16;;;;;;;5.38;2.80;;;22.00;59.70;;;;;;5012626;28;20050;-56
2022/05/10 08:48:41;;;;;;;7.10;3.08;;;21.90;59.50;;;;;;5012344;28;20481;-56
2022/05/10 08:51:07;;;;;;;3.97;2.42;;;21.90;59.60;;;;;;5010414;28;20046;-56
2022/05/10 08:53:33;;;;;;;4.68;2.22;;;21.90;59.60;;;;;;5011445;28;20128;-56
2022/05/10 08:56:30;;;;;;;7.97;3.13;;;22.00;59.60;;;;;;5012369;28;20120;-57
2022/05/10 08:59:14;;;;;;;4.50;2.40;;;22.00;59.60;;;;;;5009650;28;20064;-56
2022/05/10 09:02:18;;;;;;;4.38;2.30;;;21.90;59.50;;;;;;5012288;28;20042;-56
2022/05/10 09:05:05;;;;;;;5.15;2.65;;;22.00;59.40;;;;;;5008246;28;20054;-56
2022/05/10 09:07:42;;;;;;;5.43;2.30;;;22.00;59.60;;;;;;5010905;28;20395;-56
2022/05/10 09:10:20;;;;;;;6.15;2.70;;;22.00;59.60;;;;;;5011176;28;20050;-56
2022/05/10 09:13:01;;;;;;;4.82;2.60;;;22.00;59.60;;;;;;5010947;28;20089;-56
2022/05/10 09:15:27;;;;;;;4.45;2.67;;;21.90;59.30;;;;;;5016416;28;20049;-56
2022/05/10 09:17:52;;;;;;;6.70;2.25;;;22.00;59.30;;;;;;5015943;28;20544;-56
2022/05/10 09:20:18;;;;;;;5.40;2.67;;;22.00;59.30;;;;;;5015551;28;20042;-56
2022/05/10 09:23:05;;;;;;;6.55;2.80;;;22.00;59.10;;;;;;5015717;28;20120;-56
2022/05/10 09:25:39;;;;;;;7.63;2.75;;;21.90;59.00;;;;;;5015283;28;20079;-56
2022/05/10 09:28:17;;;;;;;7.05;2.80;;;22.00;59.00;;;;;;5016125;28;20049;-56
2022/05/10 09:34:45;;;;;;;4.90;2.80;;;22.00;58.90;;;;;;4997973;28;20517;-56
2022/05/10 09:36:12;;;;;;;9.52;4.13;;;22.00;58.80;;;;;;5015933;28;20046;-56
2022/05/10 09:38:47;;;;;;;11.30;4.18;;;22.00;58.80;;;;;;5014608;28;20444;-56
2022/05/10 09:41:35;;;;;;;9.45;4.13;;;22.10;58.90;;;;;;5014623;28;20038;-56
2022/05/10 09:44:21;;;;;;;8.73;4.40;;;22.10;59.20;;;;;;5014320;28;20049;-56
2022/05/10 09:46:47;;;;;;;11.30;4.25;;;22.10;59.30;;;;;;5014718;28;20034;-56
2022/05/10 09:49:35;;;;;;;10.48;4.38;;;22.10;59.30;;;;;;5015351;28;20104;-56
2022/05/10 09:52:00;;;;;;;;;;;22.10;59.30;;;;;;5015816;28;20099;-57
2022/05/10 09:54:38;;;;;;;9.93;4.43;;;22.10;59.30;;;;;;5014676;28;19921;-60
2022/05/10 09:57:03;;;;;;;17.92;5.53;;;22.10;59.30;;;;;;5013917;28;20042;-56
2022/05/10 09:59:43;;;;;;;13.50;4.95;;;22.20;59.40;;;;;;5013721;28;20045;-56
2022/05/10 10:02:08;;;;;;;12.25;5.28;;;22.10;59.60;;;;;;5008919;28;20543;-55
2022/05/10 10:04:40;;;;;;;15.43;5.05;;;22.20;59.70;;;;;;5013962;28;20042;-56
2022/05/10 10:07:08;;;;;;;11.32;4.95;;;22.20;59.70;;;;;;5011951;28;20042;-55
2022/05/10 10:09:38;;;;;;;11.10;4.90;;;22.20;59.70;;;;;;5012503;28;20073;-56
2022/05/10 10:12:37;;;;;;;13.05;5.05;;;22.20;59.70;;;;;;5012804;28;20050;-56
2022/05/10 10:15:25;;;;;;;16.65;5.22;;;22.20;59.60;;;;;;4991747;28;20968;-56
2022/05/10 10:17:55;;;;;;;11.43;5.18;;;22.20;59.70;;;;;;5014514;28;20482;-56
2022/05/10 10:20:35;;;;;;;8.75;4.13;;;22.20;59.70;;;;;;5014932;28;20482;-56
2022/05/10 10:23:03;;;;;;;9.93;4.70;;;22.20;59.70;;;;;;5013876;28;20046;-56
2022/05/10 10:25:39;;;;;;;9.75;4.65;;;22.20;59.80;;;;;;5012103;28;20077;-56
2022/05/10 10:28:20;;;;;;;14.27;4.68;;;22.20;59.90;;;;;;4993712;28;20386;-56
2022/05/10 10:30:52;;;;;;;8.30;4.25;;;22.20;59.90;;;;;;4993720;28;20177;-56
2022/05/10 10:33:39;;;;;;;11.30;4.97;;;22.20;59.80;;;;;;4993871;28;20394;-56
2022/05/10 10:36:22;;;;;;;14.38;4.60;;;22.30;59.70;;;;;;4993264;28;20112;-56
2022/05/10 10:38:55;;;;;;;12.18;4.65;;;22.20;59.50;;;;;;4993602;28;20050;-56
2022/05/10 10:41:36;;;;;;;10.30;4.25;;;22.20;59.60;;;;;;4994769;28;20042;-56
2022/05/10 10:44:06;;;;;;;8.18;4.43;;;22.30;59.60;;;;;;4994092;28;20081;-56
2022/05/10 10:46:41;;;;;;;9.38;4.38;;;22.30;59.80;;;;;;4995124;28;20081;-55
2022/05/10 10:49:11;;;;;;;7.18;4.22;;;22.30;59.60;;;;;;4993849;28;20210;-56
2022/05/10 10:51:37;;;;;;;9.43;4.28;;;22.30;59.60;;;;;;4993303;28;20050;-56
2022/05/10 10:54:03;;;;;;;7.30;3.85;;;22.30;59.60;;;;;;4994327;28;20056;-56
2022/05/10 10:56:48;;;;;;;10.73;4.78;;;22.30;59.60;;;;;;4994009;28;20457;-57
2022/05/10 10:59:30;;;;;;;8.65;4.57;;;22.30;59.60;;;;;;5007589;28;20049;-56
2022/05/10 11:02:16;;;;;;;12.20;4.57;;;22.30;59.60;;;;;;5008353;28;20049;-56
2022/05/10 11:05:00;;;;;;;7.30;4.13;;;22.30;59.50;;;;;;5005225;28;20045;-56
2022/05/10 11:07:37;;;;;;;10.73;4.68;;;22.30;59.60;;;;;;5012810;28;20049;-56
2022/05/10 11:10:34;;;;;;;9.25;4.57;;;22.30;59.70;;;;;;5010766;28;20038;-56
2022/05/10 11:13:21;;;;;;;8.90;4.20;;;22.30;59.60;;;;;;4995075;28;20046;-56
2022/05/10 11:16:12;;;;;;;10.77;4.77;;;22.40;59.70;;;;;;5009673;28;20108;-56
2022/05/10 11:18:42;;;;;;;11.05;4.55;;;22.40;59.70;;;;;;5010162;28;20068;-55
2022/05/10 11:21:13;;;;;;;8.02;3.53;;;22.40;59.80;;;;;;5011022;28;20048;-55
2022/05/10 11:23:41;;;;;;;10.65;4.70;;;22.40;59.60;;;;;;5012883;28;20390;-55
2022/05/10 11:26:15;;;;;;;8.05;3.58;;;22.40;59.70;;;;;;5010147;28;20524;-55
2022/05/10 11:28:46;;;;;;;8.80;4.13;;;22.40;59.60;;;;;;5010062;28;20124;-55
2022/05/10 11:31:51;;;;;;;7.65;4.05;;;22.40;59.60;;;;;;5011445;28;20073;-57
2022/05/10 11:34:42;;;;;;;8.60;3.75;;;22.50;59.60;;;;;;5012395;28;20532;-56
2022/05/10 11:37:11;;;;;;;9.85;4.35;;;22.50;59.50;;;;;;5011968;28;20046;-56
2022/05/10 11:39:58;;;;;;;7.63;3.85;;;22.50;59.50;;;;;;5011757;28;20046;-55
2022/05/10 11:42:39;;;;;;;12.48;4.38;;;22.50;59.30;;;;;;5012939;28;20045;-55
2022/05/10 11:45:34;;;;;;;9.18;4.05;;;22.50;59.30;;;;;;5012570;28;20103;-56
2022/05/10 11:48:22;;;;;;;8.77;3.78;;;22.50;59.20;;;;;;5011525;28;20053;-55
2022/05/10 11:53:56;;;;;;;8.68;3.85;;;22.40;59.10;;;;;;5011485;28;20548;-56
2022/05/10 11:56:31;;;;;;;;;;;22.40;59.10;;;;;;5013934;28;20033;-55
2022/05/10 11:58:57;;;;;;;7.65;3.53;;;22.40;59.10;;;;;;5028442;28;19925;-55
2022/05/10 12:01:43;;;;;;;7.18;4.13;;;22.40;59.10;;;;;;5011582;28;20607;-55
2022/05/10 12:04:37;;;;;;;6.30;4.03;;;22.40;59.10;;;;;;5013230;28;20042;-55
2022/05/10 12:07:18;;;;;;;8.02;3.95;;;22.40;59.00;;;;;;5011077;28;20050;-55
2022/05/10 12:10:01;;;;;;;6.72;3.88;;;22.40;59.10;;;;;;5011044;28;20046;-55
2022/05/10 12:12:33;;;;;;;8.73;3.67;;;22.40;59.00;;;;;;5010902;28;20081;-55
2022/05/10 12:21:19;;;;;;;8.27;3.90;;;22.40;59.20;;;;;;5004942;28;20429;-54
2022/05/10 12:21:23;;;;;;;7.85;3.75;;;22.40;59.40;;;;;;5005824;28;20460;-55
2022/05/10 12:24:26;;;;;;;7.45;3.90;;;22.40;59.60;;;;;;5009463;28;20049;-55
2022/05/10 12:26:57;;;;;;;8.38;3.97;;;22.50;59.70;;;;;;5008326;28;20053;-55
2022/05/10 12:29:37;;;;;;;6.47;3.60;;;22.40;59.60;;;;;;5009351;28;20429;-58
2022/05/10 12:32:18;;;;;;;7.57;3.80;;;22.50;59.50;;;;;;5009772;28;20149;-55
2022/05/10 12:34:58;;;;;;;7.55;3.90;;;22.50;59.50;;;;;;5011394;28;20045;-55
2022/05/10 12:37:31;;;;;;;8.55;3.70;;;22.50;59.60;;;;;;5011365;28;20080;-55
2022/05/10 12:39:59;;;;;;;8.15;4.20;;;22.50;59.70;;;;;;5011656;28;20050;-55
2022/05/10 12:42:38;;;;;;;;;;;22.50;59.70;;;;;;5011533;28;20053;-55
2022/05/10 12:45:37;;;;;;;6.47;3.47;;;22.50;59.60;;;;;;5011727;28;19922;-55
2022/05/10 12:48:22;;;;;;;6.53;3.97;;;22.50;59.60;;;;;;5012401;28;20544;-55
2022/05/10 12:50:53;;;;;;;9.07;3.65;;;22.50;59.70;;;;;;5013592;28;20413;-55
2022/05/10 12:53:30;;;;;;;7.25;3.60;;;22.50;59.60;;;;;;5014768;28;20060;-55
2022/05/10 12:56:10;;;;;;;10.30;3.83;;;22.60;59.80;;;;;;5014284;28;20077;-56
2022/05/10 12:58:38;;;;;;;4.55;3.15;;;22.60;59.70;;;;;;5013789;28;20528;-55
2022/05/10 13:01:04;;;;;;;8.80;3.50;;;22.50;59.70;;;;;;5014732;28;20042;-55
2022/05/10 13:03:45;;;;;;;5.70;3.53;;;22.60;59.80;;;;;;4997924;28;20045;-55
2022/05/10 13:06:25;;;;;;;6.20;3.47;;;22.60;59.80;;;;;;5044880;28;20405;-55
2022/05/10 13:09:25;;;;;;;6.40;3.78;;;22.60;59.80;;;;;;5013817;28;20080;-55
2022/05/10 13:11:54;;;;;;;11.45;3.88;;;22.50;59.70;;;;;;5012411;28;20042;-55
2022/05/10 13:14:20;;;;;;;5.97;3.38;;;22.60;59.80;;;;;;5013811;28;20489;-55
2022/05/10 13:16:52;;;;;;;5.88;3.15;;;22.60;59.80;;;;;;5013733;28;20115;-55
2022/05/10 13:19:19;;;;;;;6.50;3.45;;;22.50;59.80;;;;;;5013320;28;20088;-55
2022/05/10 13:21:44;;;;;;;6.53;3.40;;;22.60;59.90;;;;;;5013877;28;20049;-55
2022/05/10 13:24:17;;;;;;;6.97;3.55;;;22.60;59.80;;;;;;5014524;28;20068;-55